createdAt,value
2019-01-09T00:01:31.952Z,99774.30
2019-01-09T00:04:00.537Z,99777.23
2019-01-09T00:06:29.024Z,99775.09
2019-01-09T00:08:57.458Z,99775.09
2019-01-09T00:11:25.913Z,99778.09
2019-01-09T00:13:54.356Z,99783.64
2019-01-09T00:16:22.817Z,99791.39
2019-01-09T00:18:51.369Z,99792.69
2019-01-09T00:21:19.828Z,99797.40
2019-01-09T00:23:48.259Z,99804.28
2019-01-09T00:26:16.720Z,99801.72
2019-01-09T00:28:45.228Z,99814.95
2019-01-09T00:31:13.684Z,99814.95
2019-01-09T00:33:42.118Z,99826.01
2019-01-09T00:36:10.573Z,99814.03
2019-01-09T00:38:40.542Z,99814.03
2019-01-09T00:41:09.318Z,99834.95
2019-01-09T00:43:37.884Z,99828.05
2019-01-09T00:46:06.357Z,99832.25
2019-01-09T00:48:34.786Z,99844.23
2019-01-09T00:51:03.248Z,99843.37
2019-01-09T00:53:31.752Z,99841.22
2019-01-09T00:56:00.217Z,99854.82
2019-01-09T00:58:28.646Z,99854.82
2019-01-09T01:00:57.107Z,99854.20
2019-01-09T01:03:43.974Z,99866.98
2019-01-09T01:06:39.736Z,99866.98
2019-01-09T01:09:30.936Z,99859.66
2019-01-09T01:12:27.096Z,99874.11
2019-01-09T01:15:19.986Z,99882.55
2019-01-09T01:18:14.150Z,99881.98
2019-01-09T01:20:45.760Z,99893.86
2019-01-09T01:23:20.316Z,99889.58
2019-01-09T01:25:57.632Z,99898.06
2019-01-09T01:28:53.455Z,99901.47
2019-01-09T01:31:30.833Z,99906.17
2019-01-09T01:34:23.636Z,99913.34
2019-01-09T01:37:13.169Z,99920.59
2019-01-09T01:39:50.878Z,99918.41
2019-01-09T01:42:31.477Z,99935.56
2019-01-09T01:45:22.432Z,99927.50
2019-01-09T01:47:59.640Z,99940.75
2019-01-09T01:50:40.004Z,99944.59
2019-01-09T01:53:20.823Z,99956.19
2019-01-09T01:56:07.233Z,99950.59
2019-01-09T01:58:53.999Z,99956.13
2019-01-09T02:01:34.123Z,99969.35
2019-01-09T02:04:20.820Z,99954.48
2019-01-09T02:07:13.510Z,99967.30
2019-01-09T02:09:54.184Z,99980.55
2019-01-09T02:12:28.540Z,99984.88
2019-01-09T02:15:18.245Z,99984.88
2019-01-09T02:17:52.650Z,99991.22
2019-01-09T02:20:42.558Z,99994.77
2019-01-09T02:23:17.301Z,99998.97
2019-01-09T02:26:09.967Z,100002.91
2019-01-09T02:28:50.564Z,100015.78
2019-01-09T02:31:24.978Z,100004.28
2019-01-09T02:33:53.438Z,100014.53
2019-01-09T02:36:21.876Z,100013.51
2019-01-09T02:38:50.345Z,100013.51
2019-01-09T02:41:18.779Z,100025.61
2019-01-09T02:43:47.267Z,100019.20
2019-01-09T02:46:15.706Z,100028.59
2019-01-09T02:48:44.222Z,100028.11
2019-01-09T02:51:12.655Z,100030.26
2019-01-09T02:53:41.121Z,100029.74
2019-01-09T02:56:09.563Z,100034.84
2019-01-09T02:58:38.044Z,100035.19
2019-01-09T03:01:06.486Z,100039.90
2019-01-09T03:03:34.925Z,100048.87
2019-01-09T03:06:03.389Z,100044.61
2019-01-09T03:08:31.834Z,100043.74
2019-01-09T03:11:00.360Z,100049.34
2019-01-09T03:13:28.865Z,100049.28
2019-01-09T03:15:57.342Z,100049.70
2019-01-09T03:18:25.783Z,100053.06
2019-01-09T03:20:54.243Z,100053.03
2019-01-09T03:23:22.673Z,100063.30
2019-01-09T03:25:51.142Z,100056.04
2019-01-09T03:28:19.581Z,100060.30
2019-01-09T03:30:48.045Z,100062.92
2019-01-09T03:33:16.485Z,100069.71
2019-01-09T03:35:44.941Z,100067.22
2019-01-09T03:38:13.380Z,100068.91
2019-01-09T03:40:41.844Z,100075.34
2019-01-09T03:43:10.278Z,100067.92
2019-01-09T03:45:38.738Z,100080.86
2019-01-09T03:48:07.248Z,100077.40
2019-01-09T03:50:35.702Z,100058.75
2019-01-09T03:53:04.139Z,100095.17
2019-01-09T03:55:32.615Z,100088.37
2019-01-09T03:58:01.063Z,100088.37
2019-01-09T04:00:29.504Z,100089.66
2019-01-09T04:02:57.961Z,100096.09
2019-01-09T04:05:26.418Z,100095.48
2019-01-09T04:07:54.876Z,100101.06
2019-01-09T04:10:23.316Z,100104.86
2019-01-09T04:12:51.776Z,100116.39
2019-01-09T04:15:20.490Z,100108.70
2019-01-09T04:17:48.955Z,100115.02
2019-01-09T04:20:17.391Z,100126.05
2019-01-09T04:22:45.860Z,100119.23
2019-01-09T04:25:15.944Z,100121.00
2019-01-09T04:27:44.401Z,100129.09
2019-01-09T04:30:12.845Z,100135.09
2019-01-09T04:32:41.316Z,100121.41
2019-01-09T04:35:09.745Z,100139.73
2019-01-09T04:37:38.207Z,100138.06
2019-01-09T04:40:06.730Z,100143.22
2019-01-09T04:42:35.188Z,100145.78
2019-01-09T04:45:03.638Z,100150.56
2019-01-09T04:47:32.099Z,100148.34
2019-01-09T04:50:00.563Z,100159.01
2019-01-09T04:52:28.996Z,100156.34
2019-01-09T04:54:57.536Z,100160.12
2019-01-09T04:57:25.980Z,100166.86
2019-01-09T04:59:54.426Z,100164.09
2019-01-09T05:02:22.882Z,100168.70
2019-01-09T05:04:51.325Z,100174.17
2019-01-09T05:07:19.784Z,100174.51
2019-01-09T05:09:48.220Z,100189.01
2019-01-09T05:12:16.686Z,100186.45
2019-01-09T05:14:45.117Z,100190.70
2019-01-09T05:17:13.587Z,100200.12
2019-01-09T05:19:42.026Z,100197.11
2019-01-09T05:22:10.625Z,100201.81
2019-01-09T05:24:39.060Z,100206.06
2019-01-09T05:27:07.551Z,100209.80
2019-01-09T05:29:35.965Z,100210.56
2019-01-09T05:32:04.414Z,100208.75
2019-01-09T05:34:32.877Z,100213.80
2019-01-09T05:37:09.215Z,100210.37
2019-01-09T05:39:39.400Z,100216.30
2019-01-09T05:42:01.653Z,100219.80
2019-01-09T05:44:30.118Z,100226.27
2019-01-09T05:46:58.558Z,100225.78
2019-01-09T05:49:27.025Z,100223.63
2019-01-09T05:51:55.467Z,100236.78
2019-01-09T05:54:25.330Z,100232.48
2019-01-09T05:56:53.760Z,100240.61
2019-01-09T05:59:22.264Z,100242.80
2019-01-09T06:01:50.704Z,100218.16
2019-01-09T06:04:19.168Z,100248.71
2019-01-09T06:06:47.677Z,100255.22
2019-01-09T06:09:16.144Z,100259.48
2019-01-09T06:11:44.575Z,100265.02
2019-01-09T06:14:13.042Z,100270.96
2019-01-09T06:16:41.498Z,100274.31
2019-01-09T06:19:09.969Z,100281.88
2019-01-09T06:21:38.406Z,100283.05
2019-01-09T06:24:06.877Z,100287.91
2019-01-09T06:26:35.309Z,100288.47
2019-01-09T06:29:03.766Z,100286.50
2019-01-09T06:31:32.203Z,100292.75
2019-01-09T06:34:00.704Z,100304.48
2019-01-09T06:36:29.154Z,100305.11
2019-01-09T06:38:57.617Z,100308.75
2019-01-09T06:41:26.051Z,100316.31
2019-01-09T06:43:54.517Z,100317.52
2019-01-09T06:46:22.950Z,100316.11
2019-01-09T06:48:51.412Z,100326.64
2019-01-09T06:51:19.861Z,100329.04
2019-01-09T06:53:48.317Z,100332.34
2019-01-09T06:56:16.777Z,100346.81
2019-01-09T06:58:45.286Z,100346.81
2019-01-09T07:01:13.729Z,100349.50
2019-01-09T07:03:42.195Z,100356.80
2019-01-09T07:06:10.639Z,100359.81
2019-01-09T07:08:39.100Z,100367.56
2019-01-09T07:11:07.541Z,100377.05
2019-01-09T07:13:36.004Z,100376.19
2019-01-09T07:16:04.446Z,100383.91
2019-01-09T07:18:32.906Z,100387.00
2019-01-09T07:21:01.344Z,100395.20
2019-01-09T07:23:29.786Z,100396.44
2019-01-09T07:25:58.242Z,100400.81
2019-01-09T07:28:26.676Z,100403.42
2019-01-09T07:30:55.140Z,100409.41
2019-01-09T07:33:23.569Z,100407.75
2019-01-09T07:35:52.037Z,100414.68
2019-01-09T07:38:20.482Z,100418.97
2019-01-09T07:40:48.951Z,100421.13
2019-01-09T07:43:17.388Z,100424.55
2019-01-09T07:45:45.858Z,100428.01
2019-01-09T07:48:14.292Z,100438.62
2019-01-09T07:50:42.757Z,100436.55
2019-01-09T07:53:11.267Z,100447.25
2019-01-09T07:55:39.728Z,100445.63
2019-01-09T07:58:08.240Z,100456.41
2019-01-09T08:00:36.704Z,100458.17
2019-01-09T08:03:05.146Z,100460.73
2019-01-09T08:05:33.609Z,100467.26
2019-01-09T08:08:02.049Z,100474.12
2019-01-09T08:10:30.512Z,100473.33
2019-01-09T08:12:58.953Z,100472.91
2019-01-09T08:15:27.418Z,100487.94
2019-01-09T08:17:55.856Z,100489.68
2019-01-09T08:20:24.324Z,100489.68
2019-01-09T08:22:52.758Z,100499.59
2019-01-09T08:25:21.215Z,100500.91
2019-01-09T08:27:49.651Z,100508.59
2019-01-09T08:30:18.115Z,100514.13
2019-01-09T08:32:46.555Z,100522.75
2019-01-09T08:35:15.026Z,100525.77
2019-01-09T08:37:45.302Z,100526.67
2019-01-09T08:40:13.767Z,100541.66
2019-01-09T08:42:42.208Z,100534.47
2019-01-09T08:45:10.666Z,100543.02
2019-01-09T08:47:39.113Z,100546.00
2019-01-09T08:50:08.714Z,100556.23
2019-01-09T08:52:37.155Z,100561.02
2019-01-09T08:55:07.763Z,100565.33
2019-01-09T08:57:36.200Z,100575.23
2019-01-09T09:00:07.578Z,100576.10
2019-01-09T09:02:36.023Z,100577.46
2019-01-09T09:05:05.126Z,100582.25
2019-01-09T09:07:33.742Z,100583.86
2019-01-09T09:10:02.208Z,100586.97
2019-01-09T09:12:30.689Z,100603.66
2019-01-09T09:14:59.146Z,100606.63
2019-01-09T09:17:27.583Z,100610.88
2019-01-09T09:19:56.027Z,100625.78
2019-01-09T09:22:24.492Z,100618.89
2019-01-09T09:24:52.932Z,100617.56
2019-01-09T09:27:21.393Z,100626.44
2019-01-09T09:29:49.906Z,100631.64
2019-01-09T09:32:18.377Z,100646.09
2019-01-09T09:34:46.922Z,100650.76
2019-01-09T09:37:15.390Z,100647.33
2019-01-09T09:39:43.829Z,100645.55
2019-01-09T09:42:12.292Z,100657.95
2019-01-09T09:44:40.740Z,100668.59
2019-01-09T09:47:09.204Z,100665.70
2019-01-09T09:49:37.644Z,100668.27
2019-01-09T09:52:06.113Z,100676.98
2019-01-09T09:54:34.542Z,100673.69
2019-01-09T09:57:03.009Z,100678.86
2019-01-09T09:59:31.473Z,100683.73
2019-01-09T10:01:59.908Z,100686.02
2019-01-09T10:04:28.352Z,100686.64
2019-01-09T10:06:56.817Z,100683.80
2019-01-09T10:09:25.256Z,100696.91
2019-01-09T10:11:53.720Z,100694.94
2019-01-09T10:14:22.245Z,100700.27
2019-01-09T10:16:50.992Z,100709.04
2019-01-09T10:19:19.434Z,100705.33
2019-01-09T10:21:47.906Z,100713.50
2019-01-09T10:24:16.345Z,100713.50
2019-01-09T10:26:44.808Z,100726.66
2019-01-09T10:29:13.249Z,100722.86
2019-01-09T10:31:41.707Z,100722.86
2019-01-09T10:34:10.217Z,100727.20
2019-01-09T10:36:38.673Z,100727.20
2019-01-09T10:39:08.549Z,100728.15
2019-01-09T10:41:37.018Z,100738.53
2019-01-09T10:44:05.449Z,100734.19
2019-01-09T10:46:33.917Z,100738.12
2019-01-09T10:49:02.357Z,100744.45
2019-01-09T10:51:30.818Z,100738.32
2019-01-09T10:54:00.648Z,100748.70
2019-01-09T10:56:29.304Z,100755.93
2019-01-09T10:58:57.745Z,100755.93
2019-01-09T11:01:26.208Z,100761.47
2019-01-09T11:03:54.649Z,100755.44
2019-01-09T11:06:23.184Z,100769.16
2019-01-09T11:08:51.625Z,100762.00
2019-01-09T11:11:20.110Z,100763.75
2019-01-09T11:13:48.548Z,100777.52
2019-01-09T11:16:16.989Z,100777.52
2019-01-09T11:18:45.452Z,100760.45
2019-01-09T11:21:13.892Z,100775.16
2019-01-09T11:23:42.357Z,100775.16
2019-01-09T11:26:10.797Z,100778.19
2019-01-09T11:28:39.261Z,100783.31
2019-01-09T11:31:07.694Z,100787.08
2019-01-09T11:33:36.156Z,100781.95
2019-01-09T11:36:05.167Z,100784.47
2019-01-09T11:38:33.633Z,100800.25
2019-01-09T11:41:02.070Z,100805.30
2019-01-09T11:43:30.531Z,100799.30
2019-01-09T11:45:59.042Z,100799.30
2019-01-09T11:48:27.506Z,100807.45
2019-01-09T11:50:55.945Z,100805.38
2019-01-09T11:53:24.479Z,100804.97
2019-01-09T11:55:52.916Z,100808.48
2019-01-09T11:58:24.191Z,100820.56
2019-01-09T12:00:52.630Z,100822.30
2019-01-09T12:03:21.079Z,100828.71
2019-01-09T12:05:49.520Z,100828.71
2019-01-09T12:08:17.986Z,100818.45
2019-01-09T12:10:46.466Z,100824.00
2019-01-09T12:13:14.969Z,100820.48
2019-01-09T12:15:43.403Z,100826.43
2019-01-09T12:18:11.866Z,100837.14
2019-01-09T12:20:40.300Z,100837.14
2019-01-09T12:23:08.761Z,100827.76
2019-01-09T12:25:37.196Z,100827.76
2019-01-09T12:28:05.902Z,100837.27
2019-01-09T12:30:34.301Z,100841.86
2019-01-09T12:33:02.776Z,100841.86
2019-01-09T12:35:31.216Z,100858.30
2019-01-09T12:37:59.684Z,100858.30
2019-01-09T12:40:30.156Z,100855.82
2019-01-09T12:42:58.312Z,100867.77
2019-01-09T12:45:26.759Z,100867.77
2019-01-09T12:47:55.214Z,100860.81
2019-01-09T12:50:24.892Z,100874.83
2019-01-09T12:52:53.429Z,100874.83
2019-01-09T12:55:21.864Z,100869.70
2019-01-09T12:57:50.328Z,100881.18
2019-01-09T13:00:24.127Z,100879.08
2019-01-09T13:02:52.583Z,100884.20
2019-01-09T13:05:21.016Z,100889.80
2019-01-09T13:07:49.451Z,100888.92
2019-01-09T13:10:17.919Z,100886.30
2019-01-09T13:12:46.421Z,100896.14
2019-01-09T13:15:14.960Z,100907.19
2019-01-09T13:17:43.398Z,100914.82
2019-01-09T13:20:16.468Z,100915.23
2019-01-09T13:22:44.901Z,100915.23
2019-01-09T13:25:14.671Z,100916.89
2019-01-09T13:27:43.546Z,100917.63
2019-01-09T13:30:15.188Z,100923.34
2019-01-09T13:32:43.626Z,100929.61
2019-01-09T13:35:12.095Z,100929.61
2019-01-09T13:37:40.536Z,100924.34
2019-01-09T13:40:15.094Z,100927.23
2019-01-09T13:42:43.610Z,100933.95
2019-01-09T13:45:14.804Z,100933.81
2019-01-09T13:47:43.337Z,100936.61
2019-01-09T13:50:13.940Z,100947.12
2019-01-09T13:52:42.588Z,100954.57
2019-01-09T13:55:12.953Z,100954.57
2019-01-09T13:57:41.394Z,100959.55
2019-01-09T14:00:15.247Z,100959.87
2019-01-09T14:02:43.685Z,100962.69
2019-01-09T14:05:12.149Z,100961.73
2019-01-09T14:07:40.584Z,100968.36
2019-01-09T14:10:15.156Z,100972.55
2019-01-09T14:12:43.596Z,100969.90
2019-01-09T14:15:17.646Z,100974.06
2019-01-09T14:17:46.216Z,100985.12
2019-01-09T14:20:14.816Z,100991.92
2019-01-09T14:22:43.252Z,100986.72
2019-01-09T14:25:13.651Z,100995.58
2019-01-09T14:27:42.088Z,100994.62
2019-01-09T14:30:13.725Z,101011.27
2019-01-09T14:32:42.158Z,101008.64
2019-01-09T14:35:10.693Z,101016.64
2019-01-09T14:37:39.196Z,101022.95
2019-01-09T14:40:10.871Z,101030.97
2019-01-09T14:42:39.309Z,101029.13
2019-01-09T14:45:10.013Z,101029.91
2019-01-09T14:47:38.452Z,101035.34
2019-01-09T14:50:10.355Z,101030.08
2019-01-09T14:52:38.765Z,101039.28
2019-01-09T14:55:07.963Z,101043.44
2019-01-09T14:57:36.472Z,101055.77
2019-01-09T15:00:13.823Z,101053.02
2019-01-09T15:02:42.257Z,101058.95
2019-01-09T15:05:10.892Z,101063.97
2019-01-09T15:07:39.401Z,101077.08
2019-01-09T15:10:13.821Z,101080.86
2019-01-09T15:12:42.535Z,101080.30
2019-01-09T15:15:14.037Z,101085.31
2019-01-09T15:17:42.471Z,101087.25
2019-01-09T15:20:16.415Z,101087.96
2019-01-09T15:22:44.975Z,101099.69
2019-01-09T15:25:14.862Z,101101.22
2019-01-09T15:27:43.295Z,101105.42
2019-01-09T15:30:23.281Z,101105.20
2019-01-09T15:32:51.881Z,101117.89
2019-01-09T15:35:20.340Z,101119.88
2019-01-09T15:37:48.769Z,101128.42
2019-01-09T15:40:19.645Z,101127.55
2019-01-09T15:42:49.194Z,101130.52
2019-01-09T15:45:17.654Z,101141.22
2019-01-09T15:47:46.095Z,101149.77
2019-01-09T15:50:17.002Z,101146.44
2019-01-09T15:52:45.757Z,101155.45
2019-01-09T15:55:16.201Z,101158.11
2019-01-09T15:57:45.780Z,101164.67
2019-01-09T16:00:26.408Z,101165.64
2019-01-09T16:02:54.984Z,101170.15
2019-01-09T16:05:23.450Z,101179.27
2019-01-09T16:07:51.890Z,101175.13
2019-01-09T16:10:23.530Z,101180.88
2019-01-09T16:12:51.969Z,101182.34
2019-01-09T16:15:20.598Z,101185.08
2019-01-09T16:17:49.235Z,101191.73
2019-01-09T16:20:22.337Z,101209.41
2019-01-09T16:22:50.847Z,101201.68
2019-01-09T16:25:19.473Z,101206.15
2019-01-09T16:27:47.907Z,101212.91
2019-01-09T16:30:23.307Z,101211.48
2019-01-09T16:32:51.744Z,101215.17
2019-01-09T16:35:20.773Z,101221.02
2019-01-09T16:37:49.214Z,101230.44
2019-01-09T16:40:23.266Z,101230.44
2019-01-09T16:42:48.011Z,101236.84
2019-01-09T16:45:16.456Z,101233.81
2019-01-09T16:47:44.917Z,101240.94
2019-01-09T16:50:21.337Z,101236.63
2019-01-09T16:52:49.799Z,101250.16
2019-01-09T16:55:18.243Z,101259.84
2019-01-09T16:57:46.880Z,101268.75
2019-01-09T17:00:27.003Z,101268.75
2019-01-09T17:02:55.536Z,101272.29
2019-01-09T17:05:24.039Z,101250.19
2019-01-09T17:07:53.047Z,101278.13
2019-01-09T17:10:21.566Z,101285.42
2019-01-09T17:12:50.029Z,101289.51
2019-01-09T17:15:19.111Z,101289.51
2019-01-09T17:17:48.012Z,101289.20
2019-01-09T17:20:24.911Z,101302.48
2019-01-09T17:22:53.543Z,101299.05
2019-01-09T17:25:21.987Z,101309.77
2019-01-09T17:27:50.503Z,101309.77
2019-01-09T17:30:31.099Z,101319.16
2019-01-09T17:32:59.651Z,101334.38
2019-01-09T17:35:28.102Z,101336.48
2019-01-09T17:37:56.559Z,101336.48
2019-01-09T17:40:25.270Z,101342.95
2019-01-09T17:42:53.898Z,101343.77
2019-01-09T17:45:22.411Z,101347.20
2019-01-09T17:47:50.950Z,101359.46
2019-01-09T17:50:31.025Z,101360.75
2019-01-09T17:52:59.484Z,101360.75
2019-01-09T17:55:28.263Z,101363.47
2019-01-09T17:57:56.728Z,101383.11
2019-01-09T18:00:39.723Z,101382.95
2019-01-09T18:03:08.305Z,101387.83
2019-01-09T18:05:36.737Z,101387.83
2019-01-09T18:08:10.459Z,101388.80
2019-01-09T18:10:35.846Z,101396.39
2019-01-09T18:13:06.598Z,101410.13
2019-01-09T18:15:35.108Z,101417.81
2019-01-09T18:18:03.573Z,101410.58
2019-01-09T18:20:32.005Z,101415.55
2019-01-09T18:23:00.472Z,101423.71
2019-01-09T18:25:30.241Z,101433.87
2019-01-09T18:27:58.772Z,101435.45
2019-01-09T18:30:30.410Z,101438.83
2019-01-09T18:33:04.668Z,101443.96
2019-01-09T18:35:39.114Z,101446.05
2019-01-09T18:38:15.828Z,101453.81
2019-01-09T18:41:00.406Z,101452.06
2019-01-09T18:43:47.431Z,101461.09
2019-01-09T18:46:27.861Z,101461.20
2019-01-09T18:49:29.985Z,101455.80
2019-01-09T18:52:04.269Z,101455.80
2019-01-09T18:54:32.735Z,101482.42
2019-01-09T18:57:01.165Z,101483.23
2019-01-09T18:59:29.627Z,101480.41
2019-01-09T19:01:58.238Z,101486.00
2019-01-09T19:04:26.695Z,101497.23
2019-01-09T19:06:55.186Z,101490.15
2019-01-09T19:09:23.648Z,101505.73
2019-01-09T19:11:52.093Z,101511.73
2019-01-09T19:14:20.560Z,101515.88
2019-01-09T19:16:48.994Z,101528.56
2019-01-09T19:19:17.456Z,101528.56
2019-01-09T19:21:46.073Z,101539.70
2019-01-09T19:24:14.670Z,101529.84
2019-01-09T19:26:43.169Z,101535.37
2019-01-09T19:29:13.104Z,101550.59
2019-01-09T19:31:41.750Z,101550.59
2019-01-09T19:34:10.561Z,101554.74
2019-01-09T19:36:39.000Z,101558.59
2019-01-09T19:39:09.207Z,101565.77
2019-01-09T19:41:37.716Z,101565.77
2019-01-09T19:44:07.038Z,101570.13
2019-01-09T19:46:35.550Z,101581.26
2019-01-09T19:49:05.810Z,101566.88
2019-01-09T19:51:34.406Z,101566.88
2019-01-09T19:54:03.113Z,101586.69
2019-01-09T19:56:31.570Z,101590.46
2019-01-09T19:59:00.012Z,101585.81
2019-01-09T20:01:28.479Z,101592.22
2019-01-09T20:03:56.919Z,101594.48
2019-01-09T20:06:25.380Z,101614.48
2019-01-09T20:08:53.837Z,101609.86
2019-01-09T20:11:26.473Z,101609.86
2019-01-09T20:13:52.521Z,101625.24
2019-01-09T20:16:21.205Z,101629.97
2019-01-09T20:18:50.036Z,101631.55
2019-01-09T20:21:18.837Z,101639.23
2019-01-09T20:23:47.411Z,101636.97
2019-01-09T20:26:15.866Z,101642.10
2019-01-09T20:28:44.316Z,101643.38
2019-01-09T20:31:12.815Z,101646.35
2019-01-09T20:33:41.229Z,101656.73
2019-01-09T20:36:09.670Z,101655.14
2019-01-09T20:38:38.163Z,101651.30
2019-01-09T20:41:06.721Z,101653.39
2019-01-09T20:43:35.163Z,101655.38
2019-01-09T20:46:03.893Z,101655.38
2019-01-09T20:48:32.340Z,101660.50
2019-01-09T20:51:00.933Z,101673.21
2019-01-09T20:53:29.442Z,101673.21
2019-01-09T20:55:58.054Z,101670.66
2019-01-09T20:58:26.626Z,101670.66
2019-01-09T21:00:55.474Z,101679.73
2019-01-09T21:03:23.930Z,101678.34
2019-01-09T21:05:52.472Z,101682.48
2019-01-09T21:08:21.100Z,101694.53
2019-01-09T21:10:49.597Z,101701.88
2019-01-09T21:13:18.127Z,101700.94
2019-01-09T21:15:46.688Z,101704.27
2019-01-09T21:18:15.104Z,101716.91
2019-01-09T21:20:43.613Z,101716.91
2019-01-09T21:23:12.077Z,101721.15
2019-01-09T21:25:40.516Z,101722.14
2019-01-09T21:28:09.045Z,101722.14
2019-01-09T21:30:37.490Z,101727.97
2019-01-09T21:33:06.226Z,101722.66
2019-01-09T21:35:34.665Z,101731.81
2019-01-09T21:38:03.132Z,101740.12
2019-01-09T21:40:31.637Z,101742.88
2019-01-09T21:43:00.170Z,101752.54
2019-01-09T21:45:28.606Z,101744.16
2019-01-09T21:47:57.141Z,101762.42
2019-01-09T21:50:25.950Z,101750.67
2019-01-09T21:52:54.579Z,101758.68
2019-01-09T21:55:23.020Z,101749.20
2019-01-09T21:57:51.652Z,101748.22
2019-01-09T22:00:24.948Z,101750.70
2019-01-09T22:02:53.555Z,101747.15
2019-01-09T22:05:22.556Z,101752.27
2019-01-09T22:07:51.165Z,101747.84
2019-01-09T22:10:22.471Z,101751.20
2019-01-09T22:12:51.070Z,101756.22
2019-01-09T22:15:19.677Z,101757.31
2019-01-09T22:17:48.116Z,101765.36
2019-01-09T22:20:17.926Z,101763.60
2019-01-09T22:22:46.790Z,101771.77
2019-01-09T22:25:15.498Z,101763.13
2019-01-09T22:27:44.048Z,101770.59
2019-01-09T22:30:21.435Z,101767.95
2019-01-09T22:32:49.950Z,101772.08
2019-01-09T22:35:18.414Z,101778.00
2019-01-09T22:37:46.862Z,101776.61
2019-01-09T22:40:17.632Z,101774.33
2019-01-09T22:42:46.344Z,101785.45
2019-01-09T22:45:16.051Z,101778.17
2019-01-09T22:47:44.562Z,101791.38
2019-01-09T22:50:15.968Z,101786.66
2019-01-09T22:52:44.415Z,101792.55
2019-01-09T22:55:12.946Z,101796.02
2019-01-09T22:57:41.395Z,101789.22
2019-01-09T23:00:26.003Z,101793.94
2019-01-09T23:02:54.781Z,101794.42
2019-01-09T23:05:23.256Z,101792.77
2019-01-09T23:07:51.689Z,101797.56
2019-01-09T23:10:20.154Z,101800.13
2019-01-09T23:12:48.598Z,101799.36
2019-01-09T23:15:17.050Z,101797.20
2019-01-09T23:17:45.562Z,101797.68
2019-01-09T23:20:15.201Z,101801.12
2019-01-09T23:22:43.708Z,101803.69
2019-01-09T23:25:12.247Z,101809.69
2019-01-09T23:27:40.690Z,101809.31
2019-01-09T23:30:11.193Z,101810.67
2019-01-09T23:32:41.345Z,101821.31
2019-01-09T23:35:11.737Z,101824.36
2019-01-09T23:37:40.182Z,101829.28
2019-01-09T23:40:11.684Z,101824.97
2019-01-09T23:42:40.185Z,101831.66
2019-01-09T23:45:11.055Z,101830.27
2019-01-09T23:47:39.500Z,101838.55
2019-01-09T23:50:09.599Z,101845.23
2019-01-09T23:52:38.037Z,101843.95
2019-01-09T23:55:11.215Z,101850.24
2019-01-09T23:57:39.665Z,101854.08
